Airfield :
LOGIN :

Register | Disclaimer

   EN    FR    IT 

 










Legend :    VFR   Marginal VFR   IFR   Intensive IFR   Very Intensive IFR
Visi :
Ceiling :
>= 8 km
>= 3000ft
5 to 8 km
1000 to 3000 ft
1500m to 5 km
500 to 1000 ft
800 to 1500m
200 to 500 ft
< 800m
< 200 ft
Symbols :   Thunderstorms  Fog  Heavy snow  Heavy precipitations  Wind > 20 kt
SIGMETs :     Misc.  Thunderstorms  Icing  Turbulence  Mountain Waves  Volcanic Ashes






- Airport Elevation : 364 ft
- IATA code : FRA


EDDF - Frankfurt Int.

CURRENT METAR :
  • 201050Z VRB02KT 9999 FEW032 15/04 Q1017 NOSIG

EXPIRED METARs :
  • 201020Z VRB02KT 9999 FEW030 14/06 Q1017 NOSIG
  • 200950Z VRB02KT 9999 FEW026 13/06 Q1017 NOSIG
  • 200920Z VRB02KT 9999 FEW022 13/07 Q1018 NOSIG
  • 200850Z 10003KT 040V160 9999 FEW020 11/07 Q1018 NOSIG
  • 200820Z 09003KT 030V140 9999 FEW012 09/06 Q1018 NOSIG

TAF TAF EDDF
Valid from the 20 at 06:00 until the 21 at 12:00 UTC


200500Z 2006/2112 VRB03KT 0300 FG BKN001
BECMG 2006/2009 6000 SCT020
TEMPO 2011/2016 BKN040CB



MET'MAP, your aeronautical weather chart ! - Copyright ORBIFLY December 2007 - Disclaimer

ORBIFLY MET'MAP TEAM :

Programming & Development : Alexandra Zaïnal
Concept & original design : Baudouin d'Aumeries
Assistance for programming : Marc-Olivier Méhu
Technical & hardware support : Manuel Goepfert

Contact : metmap@orbifly.com




SOURCES & CREDITS :

   NOAA